Time;durP1;ratioP1;P1;durP2;ratioP2;P2;SDS_P1;SDS_P2;PMS_P1;PMS_P2;Temp;Humidity;BMP_temperature;BMP_pressure;BME280_temperature;BME280_humidity;BME280_pressure;Samples;Min_cycle;Max_cycle;Signal;HPM_P1;HPM_P2
2023/09/09 00:00:51;;;;;;;35.07;26.33;;;18.70;99.90;;;;;;5041960;28;20224;-58
2023/09/09 00:03:22;;;;;;;43.97;29.83;;;18.70;99.90;;;;;;5040877;28;20242;-59
2023/09/09 00:05:51;;;;;;;53.43;35.23;;;18.70;99.90;;;;;;5023847;28;20204;-59
2023/09/09 00:08:19;;;;;;;50.10;35.23;;;18.70;99.90;;;;;;5025465;28;20281;-59
2023/09/09 00:10:48;;;;;;;46.63;31.40;;;18.70;99.90;;;;;;5019609;28;20229;-58
2023/09/09 00:13:17;;;;;;;44.70;30.80;;;18.70;99.90;;;;;;5016629;28;20714;-59
2023/09/09 00:15:45;;;;;;;47.87;31.60;;;18.60;99.90;;;;;;5022459;28;20240;-59
2023/09/09 00:18:13;;;;;;;49.77;33.20;;;18.60;99.90;;;;;;5023180;28;20232;-60
2023/09/09 00:20:44;;;;;;;44.37;30.97;;;18.50;99.90;;;;;;5041857;28;20687;-59
2023/09/09 00:23:13;;;;;;;44.40;30.77;;;18.60;99.90;;;;;;5025421;28;20224;-60
2023/09/09 00:25:43;;;;;;;41.30;28.83;;;18.50;99.90;;;;;;5023497;28;20232;-59
2023/09/09 00:28:13;;;;;;;46.87;31.63;;;18.50;99.90;;;;;;5020587;28;20224;-59
2023/09/09 00:30:42;;;;;;;46.73;30.70;;;18.50;99.90;;;;;;5023867;28;21310;-60
2023/09/09 00:33:10;;;;;;;46.83;31.90;;;18.50;99.90;;;;;;5022378;28;20578;-59
2023/09/09 00:35:39;;;;;;;47.23;31.83;;;18.50;99.90;;;;;;5019830;28;20205;-59
2023/09/09 00:38:13;;;;;;;54.50;34.60;;;18.50;99.90;;;;;;5025619;28;20235;-59
2023/09/09 00:40:44;;;;;;;58.60;37.50;;;18.50;99.90;;;;;;5031202;28;20240;-59
2023/09/09 00:43:12;;;;;;;54.97;35.87;;;18.50;99.90;;;;;;5036210;28;20241;-59
2023/09/09 00:45:40;;;;;;;52.90;34.53;;;18.40;99.90;;;;;;5024796;28;20240;-59
2023/09/09 00:48:09;;;;;;;47.87;31.37;;;18.40;99.90;;;;;;5029685;28;20259;-59
2023/09/09 00:50:37;;;;;;;47.50;32.20;;;18.40;99.90;;;;;;5026480;28;20687;-59
2023/09/09 00:53:06;;;;;;;50.03;31.83;;;18.30;99.90;;;;;;5023804;28;20218;-59
2023/09/09 00:55:39;;;;;;;46.33;31.30;;;18.30;99.90;;;;;;5025802;28;20234;-59
2023/09/09 00:58:08;;;;;;;47.50;32.83;;;18.30;99.90;;;;;;5023105;28;20272;-59
2023/09/09 01:00:38;;;;;;;45.70;31.37;;;18.20;99.90;;;;;;5028856;28;20255;-59
2023/09/09 01:03:06;;;;;;;42.17;30.60;;;18.20;99.90;;;;;;5024611;28;20289;-59
2023/09/09 01:05:36;;;;;;;43.60;30.30;;;18.20;99.90;;;;;;5038886;28;20280;-59
2023/09/09 01:08:04;;;;;;;50.50;34.63;;;18.20;99.90;;;;;;5024880;28;20235;-58
2023/09/09 01:10:33;;;;;;;49.10;31.70;;;18.20;99.90;;;;;;5021251;28;20221;-59
2023/09/09 01:13:03;;;;;;;49.10;31.80;;;18.20;99.90;;;;;;5027473;28;20321;-59
2023/09/09 01:15:32;;;;;;;42.33;31.23;;;18.20;99.90;;;;;;5025531;28;20576;-59
2023/09/09 01:18:00;;;;;;;45.97;31.67;;;18.10;99.90;;;;;;5025222;28;20190;-59
2023/09/09 01:20:32;;;;;;;45.50;31.33;;;18.10;99.90;;;;;;5024563;28;20194;-59
2023/09/09 01:23:02;;;;;;;47.80;32.67;;;18.10;99.90;;;;;;5022694;28;20230;-58
2023/09/09 01:25:31;;;;;;;45.20;32.73;;;18.10;99.90;;;;;;5023634;28;20222;-59
2023/09/09 01:27:59;;;;;;;48.87;33.37;;;18.10;99.90;;;;;;5026652;28;20235;-60
2023/09/09 01:30:27;;;;;;;50.80;34.63;;;18.10;99.90;;;;;;5025619;28;20229;-60
2023/09/09 01:32:56;;;;;;;50.40;34.03;;;18.10;99.90;;;;;;5026717;28;20205;-59
2023/09/09 01:35:24;;;;;;;54.03;34.93;;;18.10;99.90;;;;;;5025286;28;20306;-59
2023/09/09 01:37:53;;;;;;;56.57;37.43;;;18.10;99.90;;;;;;5054778;28;20293;-59
2023/09/09 01:40:23;;;;;;;54.97;35.97;;;18.00;99.90;;;;;;5025929;28;20672;-59
2023/09/09 01:42:51;;;;;;;49.93;34.40;;;18.00;99.90;;;;;;5025929;28;20610;-59
2023/09/09 01:45:19;;;;;;;49.20;32.83;;;18.00;99.90;;;;;;5023983;28;20191;-59
2023/09/09 01:47:48;;;;;;;45.23;31.03;;;18.00;99.90;;;;;;5026946;28;20283;-59
2023/09/09 01:50:16;;;;;;;45.17;31.67;;;18.00;99.90;;;;;;5025119;28;20651;-59
2023/09/09 01:52:44;;;;;;;46.03;32.87;;;18.00;99.90;;;;;;5027199;28;20304;-59
2023/09/09 01:55:13;;;;;;;49.63;33.40;;;17.90;99.90;;;;;;5026557;28;20225;-59
2023/09/09 01:57:43;;;;;;;41.87;30.10;;;17.90;99.90;;;;;;5022249;28;20222;-60
2023/09/09 02:00:13;;;;;;;43.23;29.13;;;17.90;99.90;;;;;;5025303;28;20201;-59
2023/09/09 02:02:41;;;;;;;46.37;30.17;;;17.90;99.90;;;;;;5023713;28;20213;-59
2023/09/09 02:05:10;;;;;;;42.60;30.20;;;17.90;99.90;;;;;;5023365;28;20217;-58
2023/09/09 02:07:39;;;;;;;37.27;26.47;;;17.80;99.90;;;;;;5023600;28;20903;-58
2023/09/09 02:10:08;;;;;;;40.33;28.13;;;17.80;99.90;;;;;;5021889;28;20249;-60
2023/09/09 02:12:42;;;;;;;45.17;28.90;;;17.80;99.90;;;;;;5019461;28;20225;-60
2023/09/09 02:15:13;;;;;;;41.70;29.03;;;17.80;99.90;;;;;;5027248;28;20198;-59
2023/09/09 02:17:41;;;;;;;47.30;31.50;;;17.80;99.90;;;;;;5027649;28;20556;-60
2023/09/09 02:20:10;;;;;;;37.93;26.30;;;17.80;99.90;;;;;;5026415;28;20233;-59
2023/09/09 02:22:38;;;;;;;41.50;28.83;;;17.80;99.90;;;;;;5027372;28;20221;-59
2023/09/09 02:25:08;;;;;;;38.83;28.07;;;17.70;99.90;;;;;;5023497;28;20234;-59
2023/09/09 02:27:36;;;;;;;43.80;30.13;;;17.70;99.90;;;;;;5023222;28;20229;-58
2023/09/09 02:30:07;;;;;;;45.07;30.37;;;17.70;99.90;;;;;;5022408;28;20194;-59
2023/09/09 02:32:36;;;;;;;51.33;32.43;;;17.70;99.90;;;;;;5023768;28;20293;-58
2023/09/09 02:35:07;;;;;;;48.00;30.97;;;17.70;99.90;;;;;;5020868;28;20236;-59
2023/09/09 02:37:35;;;;;;;45.63;31.50;;;17.60;99.90;;;;;;5022792;28;20248;-58
2023/09/09 02:40:04;;;;;;;48.50;31.37;;;17.60;99.90;;;;;;5025182;28;20221;-59
2023/09/09 02:42:33;;;;;;;49.23;32.23;;;17.60;99.90;;;;;;5060640;28;20227;-59
2023/09/09 02:45:02;;;;;;;47.87;31.47;;;17.60;99.90;;;;;;5025260;28;20204;-59
2023/09/09 02:47:32;;;;;;;50.27;34.03;;;17.60;99.90;;;;;;5052892;28;20197;-59
2023/09/09 02:50:00;;;;;;;55.30;35.67;;;17.60;99.90;;;;;;5026854;28;20243;-59
2023/09/09 02:52:29;;;;;;;53.30;36.00;;;17.60;99.90;;;;;;5026908;28;20220;-59
2023/09/09 02:54:57;;;;;;;54.43;35.27;;;17.60;99.90;;;;;;5022663;28;20221;-59
2023/09/09 02:57:26;;;;;;;51.80;35.13;;;17.60;99.90;;;;;;5026736;28;20229;-59
2023/09/09 02:59:54;;;;;;;49.47;33.50;;;17.60;99.90;;;;;;5018591;28;20202;-60
2023/09/09 03:02:23;;;;;;;46.23;30.23;;;17.50;99.90;;;;;;5023667;28;20224;-60
2023/09/09 03:04:53;;;;;;;45.60;30.20;;;17.50;99.90;;;;;;5022868;28;20309;-60
2023/09/09 03:07:21;;;;;;;47.43;31.00;;;17.50;99.90;;;;;;5055223;28;20571;-59
2023/09/09 03:09:49;;;;;;;43.03;28.47;;;17.50;99.90;;;;;;5050689;28;20229;-59
2023/09/09 03:12:20;;;;;;;42.77;29.27;;;17.40;99.90;;;;;;5021167;28;20368;-59
2023/09/09 03:14:49;;;;;;;47.97;31.03;;;17.40;99.90;;;;;;5018561;28;20205;-59
2023/09/09 03:17:18;;;;;;;45.73;30.07;;;17.40;99.90;;;;;;5020750;28;20221;-60
2023/09/09 03:19:46;;;;;;;43.17;28.10;;;17.40;99.90;;;;;;5024716;28;20225;-59
2023/09/09 03:22:17;;;;;;;42.17;29.23;;;17.40;99.90;;;;;;5021165;28;20217;-59
2023/09/09 03:24:45;;;;;;;41.77;28.20;;;17.30;99.90;;;;;;5023300;28;20224;-59
2023/09/09 03:27:13;;;;;;;42.87;29.43;;;17.30;99.90;;;;;;5023446;28;20200;-60
2023/09/09 03:29:42;;;;;;;46.30;29.97;;;17.30;99.90;;;;;;5022682;28;20194;-60
2023/09/09 03:32:10;;;;;;;41.57;27.07;;;17.30;99.90;;;;;;5025141;28;21200;-60
2023/09/09 03:34:39;;;;;;;41.47;27.87;;;17.30;99.90;;;;;;5036492;28;20229;-59
2023/09/09 03:37:07;;;;;;;37.30;26.30;;;17.30;99.90;;;;;;5020192;28;20316;-60
2023/09/09 03:39:37;;;;;;;38.37;24.83;;;17.20;99.90;;;;;;5024824;28;20233;-60
2023/09/09 03:42:06;;;;;;;40.27;25.83;;;17.20;99.90;;;;;;5015751;28;20204;-60
2023/09/09 03:44:34;;;;;;;43.47;27.97;;;17.20;99.90;;;;;;5020836;28;20198;-60
2023/09/09 03:47:03;;;;;;;43.43;28.20;;;17.20;99.90;;;;;;5024894;28;20221;-59
2023/09/09 03:49:31;;;;;;;41.87;28.20;;;17.20;99.90;;;;;;5024128;28;20229;-60
2023/09/09 03:51:59;;;;;;;40.90;27.37;;;17.20;99.90;;;;;;5025412;28;20229;-59
2023/09/09 03:54:28;;;;;;;43.23;27.80;;;17.20;99.90;;;;;;5024914;28;20217;-60
2023/09/09 03:56:57;;;;;;;41.27;27.80;;;17.20;99.90;;;;;;5026057;28;20590;-60
2023/09/09 03:59:29;;;;;;;53.13;32.53;;;17.20;99.90;;;;;;5044774;28;20205;-60
2023/09/09 04:01:58;;;;;;;48.63;31.27;;;17.20;99.90;;;;;;5041622;28;20217;-60
2023/09/09 04:04:26;;;;;;;46.13;28.93;;;17.10;99.90;;;;;;5048329;28;20218;-60
2023/09/09 04:06:55;;;;;;;54.00;31.27;;;17.10;99.90;;;;;;5040611;28;20221;-59
2023/09/09 04:09:26;;;;;;;45.30;29.93;;;17.10;99.90;;;;;;5036004;28;20232;-60
2023/09/09 04:11:55;;;;;;;50.33;31.90;;;17.10;99.90;;;;;;5042989;28;20196;-60
2023/09/09 04:14:25;;;;;;;60.73;33.77;;;17.10;99.90;;;;;;5042867;28;20223;-60
2023/09/09 04:16:53;;;;;;;59.40;33.47;;;17.10;99.90;;;;;;5041258;28;20607;-60
2023/09/09 04:19:21;;;;;;;49.60;31.97;;;17.10;99.90;;;;;;5044295;28;20219;-59
2023/09/09 04:21:51;;;;;;;48.17;32.37;;;17.10;99.90;;;;;;5041446;28;20221;-60
2023/09/09 04:24:19;;;;;;;52.37;31.93;;;17.00;99.90;;;;;;5044767;28;20212;-59
2023/09/09 04:26:48;;;;;;;55.97;32.90;;;17.00;99.90;;;;;;5044241;28;20272;-59
2023/09/09 04:29:17;;;;;;;50.00;31.53;;;17.00;99.90;;;;;;5040959;28;20766;-59
2023/09/09 04:31:47;;;;;;;59.63;37.03;;;17.00;99.90;;;;;;5047967;28;20220;-60
2023/09/09 04:34:16;;;;;;;73.57;41.03;;;17.00;99.90;;;;;;5048179;28;20290;-59
2023/09/09 04:36:45;;;;;;;70.10;41.63;;;17.00;99.90;;;;;;5047009;28;20714;-59
2023/09/09 04:39:15;;;;;;;69.83;40.00;;;17.00;99.90;;;;;;5044004;28;20284;-59
2023/09/09 04:41:43;;;;;;;64.47;37.43;;;17.00;99.90;;;;;;5041925;28;20204;-59
2023/09/09 04:44:12;;;;;;;72.93;40.20;;;16.90;99.90;;;;;;5048162;28;20311;-59
2023/09/09 04:46:40;;;;;;;78.93;42.83;;;16.90;99.90;;;;;;5043080;28;20564;-59
2023/09/09 04:49:10;;;;;;;79.60;44.23;;;17.00;99.90;;;;;;5042427;28;20973;-59
2023/09/09 04:51:38;;;;;;;81.57;46.67;;;17.00;99.90;;;;;;5044016;28;20229;-59
2023/09/09 04:54:06;;;;;;;85.33;47.53;;;17.00;99.90;;;;;;5048048;28;20647;-59
2023/09/09 04:56:35;;;;;;;79.53;45.43;;;17.00;99.90;;;;;;5045469;28;20212;-59
2023/09/09 04:59:03;;;;;;;89.13;49.93;;;17.00;99.90;;;;;;5046580;28;20212;-60
2023/09/09 05:01:31;;;;;;;97.60;53.20;;;17.00;99.90;;;;;;5047747;28;20231;-59
2023/09/09 05:04:00;;;;;;;102.03;54.33;;;17.00;99.90;;;;;;5047861;28;20686;-59
2023/09/09 05:06:29;;;;;;;113.53;58.20;;;16.90;99.90;;;;;;5044541;28;20312;-59
2023/09/09 05:08:58;;;;;;;107.83;55.50;;;17.00;99.90;;;;;;5046348;28;20811;-59
2023/09/09 05:11:26;;;;;;;107.73;58.57;;;17.00;99.90;;;;;;5044902;28;20220;-59
2023/09/09 05:13:54;;;;;;;108.43;56.87;;;17.00;99.90;;;;;;5042370;28;20227;-58
2023/09/09 05:16:23;;;;;;;108.63;58.83;;;17.00;99.90;;;;;;5047137;28;20339;-59
2023/09/09 05:18:51;;;;;;;102.97;56.30;;;17.00;99.90;;;;;;5042212;28;20238;-59
2023/09/09 05:21:20;;;;;;;93.70;53.20;;;17.00;99.90;;;;;;5038443;28;20198;-58
2023/09/09 05:23:50;;;;;;;95.73;51.40;;;17.00;99.90;;;;;;5050022;28;20651;-59
2023/09/09 05:26:18;;;;;;;87.60;49.63;;;17.00;99.90;;;;;;5040988;28;20221;-59
2023/09/09 05:28:46;;;;;;;88.40;50.97;;;17.00;99.90;;;;;;5046129;28;20227;-59
2023/09/09 05:31:15;;;;;;;92.77;51.00;;;17.00;99.90;;;;;;5044358;28;20218;-59
2023/09/09 05:33:44;;;;;;;94.67;52.80;;;17.00;99.90;;;;;;5040129;28;20236;-59
2023/09/09 05:36:12;;;;;;;100.20;54.27;;;17.00;99.90;;;;;;5048566;28;20643;-59
2023/09/09 05:38:41;;;;;;;106.00;54.70;;;17.00;99.90;;;;;;5061442;28;20772;-59
2023/09/09 05:41:10;;;;;;;107.50;57.00;;;17.00;99.90;;;;;;5044057;28;20231;-59
2023/09/09 05:43:39;;;;;;;100.80;55.00;;;17.10;99.90;;;;;;5043728;28;20231;-59
2023/09/09 05:46:07;;;;;;;100.73;53.03;;;17.10;99.90;;;;;;5046026;28;20581;-59
2023/09/09 05:48:36;;;;;;;96.90;52.00;;;17.20;99.90;;;;;;5042237;28;20727;-59
2023/09/09 05:51:05;;;;;;;95.77;49.73;;;17.20;99.90;;;;;;5046804;28;20198;-59
2023/09/09 05:53:33;;;;;;;96.80;49.47;;;17.20;99.90;;;;;;5045974;28;20520;-59
2023/09/09 05:56:02;;;;;;;86.10;47.63;;;17.30;99.90;;;;;;5043056;28;20328;-59
2023/09/09 05:58:32;;;;;;;99.13;52.57;;;17.40;99.90;;;;;;5045014;28;20263;-58
2023/09/09 06:01:00;;;;;;;102.70;52.93;;;17.40;99.90;;;;;;5045744;28;20221;-59
2023/09/09 06:03:29;;;;;;;102.30;55.97;;;17.50;99.90;;;;;;5042159;28;20233;-59
2023/09/09 06:05:57;;;;;;;106.40;55.73;;;17.50;99.90;;;;;;5045313;28;20189;-59
2023/09/09 06:08:27;;;;;;;102.63;54.37;;;17.60;99.90;;;;;;5042631;28;20216;-59
2023/09/09 06:10:55;;;;;;;90.43;48.47;;;17.60;99.90;;;;;;5043429;28;20228;-59
2023/09/09 06:13:24;;;;;;;98.33;53.87;;;17.70;99.90;;;;;;5042690;28;20231;-60
2023/09/09 06:15:53;;;;;;;98.83;53.73;;;17.70;99.90;;;;;;5039321;28;20781;-59
2023/09/09 06:18:22;;;;;;;93.77;50.13;;;17.80;99.90;;;;;;5040374;28;20224;-59
2023/09/09 06:20:52;;;;;;;103.43;54.03;;;17.90;99.90;;;;;;5045673;28;20274;-60
2023/09/09 06:23:20;;;;;;;112.87;58.40;;;18.00;99.90;;;;;;5039179;28;20261;-59
2023/09/09 06:25:50;;;;;;;103.20;56.57;;;18.10;99.90;;;;;;5039411;28;20232;-59
2023/09/09 06:28:19;;;;;;;108.43;54.77;;;18.20;99.90;;;;;;5043424;28;20220;-58
2023/09/09 06:30:50;;;;;;;104.67;54.67;;;18.40;99.90;;;;;;5041534;28;20275;-59
2023/09/09 06:33:20;;;;;;;98.53;55.10;;;18.60;99.90;;;;;;5044945;28;20197;-58
2023/09/09 06:35:49;;;;;;;86.20;49.93;;;18.90;99.90;;;;;;5043864;28;20922;-60
2023/09/09 06:38:18;;;;;;;87.13;51.07;;;19.10;99.90;;;;;;5044436;28;20223;-59
2023/09/09 06:40:46;;;;;;;83.07;48.50;;;19.40;99.90;;;;;;5042211;28;20224;-59
2023/09/09 06:43:17;;;;;;;75.70;45.47;;;19.60;99.90;;;;;;5046694;28;20228;-60
2023/09/09 06:45:46;;;;;;;75.73;46.47;;;19.80;99.90;;;;;;5038495;28;20294;-59
2023/09/09 06:48:17;;;;;;;76.00;44.87;;;20.10;99.90;;;;;;5047314;28;20785;-59
2023/09/09 06:50:48;;;;;;;67.27;43.23;;;20.30;99.90;;;;;;5046906;28;20192;-59
2023/09/09 06:53:17;;;;;;;74.83;42.60;;;20.60;99.90;;;;;;5044402;28;20231;-59
2023/09/09 06:55:45;;;;;;;69.67;43.20;;;20.70;99.90;;;;;;5041937;28;20213;-58
2023/09/09 06:58:14;;;;;;;67.70;41.03;;;20.90;99.90;;;;;;5041222;28;20233;-60
2023/09/09 07:00:43;;;;;;;66.80;42.73;;;21.10;99.90;;;;;;5042440;28;20228;-59
2023/09/09 07:03:11;;;;;;;72.57;43.57;;;21.20;99.90;;;;;;5043462;28;20209;-59
2023/09/09 07:05:40;;;;;;;74.43;43.63;;;21.40;99.90;;;;;;5044778;28;20663;-59
2023/09/09 07:08:10;;;;;;;67.77;44.13;;;21.70;99.90;;;;;;5041590;28;20346;-60
2023/09/09 07:10:38;;;;;;;70.57;41.83;;;21.90;99.90;;;;;;5047105;28;20238;-59
2023/09/09 07:13:07;;;;;;;63.50;43.00;;;22.10;99.90;;;;;;5046119;28;20346;-59
2023/09/09 07:15:37;;;;;;;69.47;44.00;;;22.30;99.90;;;;;;5048157;28;20604;-59
2023/09/09 07:18:05;;;;;;;70.90;45.60;;;22.40;99.90;;;;;;5044336;28;20262;-59
2023/09/09 07:20:34;;;;;;;72.50;45.80;;;22.50;99.90;;;;;;5046114;28;20281;-59
2023/09/09 07:23:02;;;;;;;70.40;44.43;;;22.70;99.90;;;;;;5042979;28;20284;-59
2023/09/09 07:25:33;;;;;;;66.77;45.00;;;22.90;99.90;;;;;;5045224;28;20230;-58
2023/09/09 07:28:02;;;;;;;69.33;45.87;;;22.90;99.90;;;;;;5044088;28;20243;-59
2023/09/09 07:30:33;;;;;;;69.43;45.67;;;23.00;99.90;;;;;;5044033;28;20234;-59
2023/09/09 07:33:01;;;;;;;68.17;41.10;;;23.10;99.90;;;;;;5047762;28;20206;-59
2023/09/09 07:35:29;;;;;;;63.63;41.57;;;23.20;99.90;;;;;;5047102;28;20191;-59
2023/09/09 07:37:57;;;;;;;62.83;40.73;;;23.40;99.90;;;;;;5045906;28;20294;-58
2023/09/09 07:40:26;;;;;;;64.23;43.13;;;23.60;99.90;;;;;;5038768;28;20232;-59
2023/09/09 07:42:55;;;;;;;65.13;41.93;;;23.70;99.90;;;;;;5043041;28;20233;-59
2023/09/09 07:45:24;;;;;;;65.87;41.77;;;23.90;99.90;;;;;;5046332;28;20243;-59
2023/09/09 07:47:52;;;;;;;68.20;42.10;;;24.00;99.90;;;;;;5046335;28;20227;-59
2023/09/09 07:50:21;;;;;;;53.97;37.67;;;24.20;99.90;;;;;;5045981;28;20308;-59
2023/09/09 07:52:49;;;;;;;60.93;38.10;;;24.30;99.90;;;;;;5046215;28;20235;-59
2023/09/09 07:55:17;;;;;;;50.97;35.63;;;24.40;99.90;;;;;;5037247;28;20213;-59
2023/09/09 07:57:46;;;;;;;47.23;33.90;;;24.40;99.90;;;;;;5051949;28;20355;-59
2023/09/09 08:00:16;;;;;;;52.97;34.33;;;24.50;99.90;;;;;;5045692;28;20200;-59
2023/09/09 08:02:44;;;;;;;48.67;33.47;;;24.50;99.90;;;;;;5052455;28;20203;-59
2023/09/09 08:05:13;;;;;;;41.83;31.57;;;24.80;99.90;;;;;;5051341;28;20232;-59
2023/09/09 08:07:41;;;;;;;55.00;31.67;;;25.00;99.90;;;;;;5047683;28;20217;-58
2023/09/09 08:10:12;;;;;;;37.83;29.13;;;25.10;99.90;;;;;;5047446;28;20691;-59
2023/09/09 08:12:41;;;;;;;38.63;27.47;;;25.30;99.90;;;;;;5045636;28;20229;-59
2023/09/09 08:15:11;;;;;;;35.50;27.87;;;25.50;99.90;;;;;;5049171;28;20196;-60
2023/09/09 08:17:45;;;;;;;34.47;25.23;;;25.50;99.90;;;;;;5045590;28;20266;-59
2023/09/09 08:20:13;;;;;;;29.83;23.33;;;25.60;99.90;;;;;;5044695;28;20228;-60
2023/09/09 08:22:42;;;;;;;30.73;22.30;;;25.70;99.90;;;;;;5048310;28;20607;-59
2023/09/09 08:25:11;;;;;;;30.13;22.77;;;25.90;99.90;;;;;;5045565;28;20225;-59
2023/09/09 08:27:40;;;;;;;25.10;19.70;;;26.00;99.90;;;;;;5049572;28;20230;-60
2023/09/09 08:30:09;;;;;;;27.57;20.37;;;26.20;99.90;;;;;;5047074;28;20185;-60
2023/09/09 08:32:37;;;;;;;24.97;19.03;;;26.30;99.90;;;;;;5045444;28;20190;-60
2023/09/09 08:35:07;;;;;;;23.17;18.43;;;26.30;99.90;;;;;;5044756;28;20224;-59
2023/09/09 08:37:36;;;;;;;22.47;18.70;;;26.40;99.90;;;;;;5042709;28;20233;-59
2023/09/09 08:40:05;;;;;;;25.13;19.00;;;26.40;99.90;;;;;;5044911;28;20228;-59
2023/09/09 08:42:45;;;;;;;21.87;17.63;;;26.50;99.90;;;;;;5048668;28;20241;-59
2023/09/09 08:45:25;;;;;;;25.60;17.87;;;26.60;99.90;;;;;;5039719;28;20546;-59
2023/09/09 08:47:59;;;;;;;24.33;19.10;;;26.70;99.90;;;;;;5048259;28;20190;-58
2023/09/09 08:50:32;;;;;;;24.37;19.77;;;26.70;99.90;;;;;;5043909;28;20247;-60
2023/09/09 08:53:04;;;;;;;27.60;19.70;;;26.80;99.90;;;;;;5031066;28;20214;-60
2023/09/09 08:55:32;;;;;;;23.97;16.53;;;26.90;99.90;;;;;;5026710;28;20218;-61
2023/09/09 08:58:03;;;;;;;16.93;15.00;;;27.10;99.90;;;;;;5028460;28;20238;-63
2023/09/09 09:00:35;;;;;;;18.90;15.77;;;27.10;99.90;;;;;;5024389;28;20599;-62
2023/09/09 09:03:04;;;;;;;23.02;13.73;;;27.20;99.90;;;;;;5021931;28;20301;-62
2023/09/09 09:05:36;;;;;;;18.63;13.85;;;27.30;99.90;;;;;;5024805;28;20198;-63
2023/09/09 09:08:07;;;;;;;20.98;15.05;;;27.50;99.90;;;;;;5026447;28;20233;-63
2023/09/09 09:10:35;;;;;;;21.45;14.88;;;27.50;99.90;;;;;;5024217;28;20231;-62
2023/09/09 09:13:05;;;;;;;12.85;11.55;;;27.60;99.90;;;;;;5024716;28;20269;-63
2023/09/09 09:15:36;;;;;;;14.35;10.40;;;27.80;99.90;;;;;;5021702;28;20223;-62
2023/09/09 09:18:05;;;;;;;17.25;11.45;;;27.80;99.90;;;;;;5020926;28;20677;-63
2023/09/09 09:20:36;;;;;;;12.82;11.50;;;27.80;99.90;;;;;;5023202;28;20214;-62
2023/09/09 09:23:06;;;;;;;14.30;9.82;;;28.00;99.90;;;;;;5023569;28;20234;-61
2023/09/09 09:25:37;;;;;;;13.13;10.07;;;28.00;99.90;;;;;;5025650;28;20241;-67
2023/09/09 09:28:06;;;;;;;12.18;10.00;;;28.10;99.90;;;;;;5065644;28;20236;-65
2023/09/09 09:30:35;;;;;;;11.82;10.32;;;28.20;99.90;;;;;;5029259;28;20239;-65
2023/09/09 09:33:04;;;;;;;13.25;11.15;;;28.20;99.90;;;;;;5063080;28;20209;-65
2023/09/09 09:35:36;;;;;;;14.23;10.30;;;28.30;99.90;;;;;;5029137;28;20286;-65
2023/09/09 09:38:07;;;;;;;12.77;11.18;;;28.40;99.90;;;;;;5030826;28;20247;-65
2023/09/09 09:40:35;;;;;;;12.07;9.02;;;28.40;99.90;;;;;;5031193;28;20233;-66
2023/09/09 09:43:04;;;;;;;11.88;10.07;;;28.40;99.90;;;;;;5026281;28;20595;-66
2023/09/09 09:45:32;;;;;;;10.95;9.93;;;28.50;99.90;;;;;;5026558;28;20260;-65
2023/09/09 09:48:01;;;;;;;10.77;9.40;;;28.60;99.90;;;;;;5029306;28;20231;-64
2023/09/09 09:50:32;;;;;;;13.57;9.52;;;28.70;99.90;;;;;;5029720;28;20593;-65
2023/09/09 09:53:04;;;;;;;13.13;9.68;;;28.80;99.90;;;;;;5028770;28;20698;-66
2023/09/09 09:55:34;;;;;;;9.50;8.55;;;29.00;99.90;;;;;;5031340;28;20246;-65
2023/09/09 09:58:04;;;;;;;13.93;11.50;;;29.10;99.90;;;;;;5031047;28;20236;-66
2023/09/09 10:00:33;;;;;;;9.05;8.13;;;29.30;99.90;;;;;;5033146;28;20238;-66
2023/09/09 10:03:03;;;;;;;17.27;9.38;;;29.40;99.90;;;;;;5025011;28;20608;-65
2023/09/09 10:05:33;;;;;;;11.32;8.90;;;29.50;99.90;;;;;;5033638;28;20215;-66
2023/09/09 10:08:09;;;;;;;10.30;8.50;;;29.60;99.90;;;;;;5033343;28;20223;-66
2023/09/09 10:10:40;;;;;;;13.20;11.77;;;29.80;99.90;;;;;;5028796;28;20224;-66
2023/09/09 10:13:15;;;;;;;14.00;9.98;;;29.80;99.90;;;;;;5031619;28;20596;-66
2023/09/09 10:15:45;;;;;;;11.05;8.50;;;30.00;99.90;;;;;;5026083;28;20259;-66
2023/09/09 10:21:38;;;;;;;9.90;7.53;;;30.70;99.90;;;;;;5027319;28;20225;-66
2023/09/09 10:24:13;;;;;;;10.05;7.90;;;30.60;99.90;;;;;;5030503;28;20218;-65
2023/09/09 10:26:42;;;;;;;16.50;7.18;;;30.60;99.90;;;;;;5029613;28;20639;-66
2023/09/09 10:29:10;;;;;;;12.43;7.20;;;30.50;99.90;;;;;;5028529;28;20210;-66
2023/09/09 10:31:42;;;;;;;10.23;7.47;;;30.50;99.90;;;;;;5029052;28;20391;-66
2023/09/09 10:34:11;;;;;;;9.93;7.13;;;30.60;99.90;;;;;;5024875;28;20228;-66
2023/09/09 10:36:42;;;;;;;10.63;7.03;;;30.80;99.90;;;;;;5021971;28;20226;-66
2023/09/09 10:39:30;;;;;;;9.43;7.53;;;31.00;99.90;;;;;;5029630;28;20221;-66
2023/09/09 10:41:59;;;;;;;9.27;6.43;;;31.10;99.90;;;;;;5030004;28;20200;-66
2023/09/09 10:44:27;;;;;;;9.05;5.95;;;31.20;99.90;;;;;;5024781;28;20286;-66
2023/09/09 10:46:56;;;;;;;10.18;6.80;;;31.40;99.90;;;;;;5027065;28;20323;-66
2023/09/09 10:49:27;;;;;;;11.10;6.70;;;31.60;99.90;;;;;;5025352;28;20222;-66
2023/09/09 10:51:56;;;;;;;15.90;6.65;;;31.70;99.90;;;;;;5032513;28;20587;-66
2023/09/09 10:54:26;;;;;;;8.95;5.82;;;31.40;99.90;;;;;;5031226;28;20274;-66
2023/09/09 10:56:59;;;;;;;7.72;5.57;;;31.40;99.90;;;;;;5032175;28;20295;-66
2023/09/09 10:59:30;;;;;;;8.45;6.30;;;31.60;99.90;;;;;;5021672;28;20300;-66
2023/09/09 11:02:13;;;;;;;8.40;5.30;;;32.00;99.90;;;;;;5034501;28;20287;-66
2023/09/09 11:04:42;;;;;;;13.20;5.95;;;31.80;99.90;;;;;;5031248;28;20228;-66
2023/09/09 11:07:13;;;;;;;10.05;5.35;;;31.60;99.90;;;;;;5032495;28;20240;-66
2023/09/09 11:09:51;;;;;;;14.38;5.07;;;31.80;99.90;;;;;;5033184;28;20215;-66
2023/09/09 11:12:28;;;;;;;10.30;5.60;;;31.70;99.90;;;;;;5033131;28;20851;-66
2023/09/09 11:15:07;;;;;;;6.22;5.63;;;32.00;99.90;;;;;;5035614;28;20189;-66
2023/09/09 11:17:37;;;;;;;10.27;5.38;;;32.30;99.90;;;;;;5032347;28;20217;-66
2023/09/09 11:20:11;;;;;;;7.50;5.40;;;32.30;99.90;;;;;;5038416;28;20552;-66
2023/09/09 11:22:41;;;;;;;6.30;4.95;;;32.30;99.90;;;;;;5033024;28;20226;-66
2023/09/09 11:25:09;;;;;;;13.52;5.35;;;32.30;99.90;;;;;;5025737;28;20223;-66
2023/09/09 11:27:41;;;;;;;11.15;5.20;;;32.30;99.90;;;;;;5032039;28;20231;-66
2023/09/09 11:30:11;;;;;;;12.65;5.90;;;32.40;99.90;;;;;;5028888;28;20190;-66
2023/09/09 11:32:39;;;;;;;8.50;5.15;;;32.20;99.90;;;;;;5032520;28;20563;-66
2023/09/09 11:35:11;;;;;;;10.90;5.57;;;32.10;99.90;;;;;;5030432;28;20220;-66
2023/09/09 11:37:40;;;;;;;11.18;5.53;;;32.30;99.90;;;;;;5031369;28;20228;-66
2023/09/09 11:40:09;;;;;;;8.20;5.57;;;32.40;99.90;;;;;;5030349;28;20248;-66
2023/09/09 11:42:52;;;;;;;9.70;5.55;;;32.60;99.90;;;;;;5026890;28;20229;-66
2023/09/09 11:45:22;;;;;;;8.88;5.43;;;32.70;99.90;;;;;;5034708;28;20232;-66
2023/09/09 11:47:50;;;;;;;7.30;5.20;;;32.80;99.90;;;;;;5021819;28;20186;-66
2023/09/09 11:50:19;;;;;;;8.02;4.95;;;33.00;99.90;;;;;;5022134;28;20245;-66
2023/09/09 11:52:47;;;;;;;11.05;5.28;;;33.00;99.90;;;;;;5022580;28;20221;-66
2023/09/09 11:55:17;;;;;;;11.85;5.20;;;32.90;99.90;;;;;;5029752;28;20251;-66
2023/09/09 11:57:56;;;;;;;13.45;5.35;;;33.20;99.90;;;;;;5031897;28;20629;-66
2023/09/09 12:00:25;;;;;;;7.45;4.95;;;33.40;99.90;;;;;;5031780;28;20248;-66
2023/09/09 12:02:53;;;;;;;8.00;5.40;;;33.40;99.90;;;;;;5024727;28;20687;-66
2023/09/09 12:05:26;;;;;;;9.40;5.07;;;33.40;99.90;;;;;;5031406;28;20686;-66
2023/09/09 12:07:55;;;;;;;8.90;5.28;;;33.00;99.90;;;;;;5027722;28;20249;-61
2023/09/09 12:10:25;;;;;;;11.98;5.57;;;32.90;99.90;;;;;;5019317;28;20215;-60
2023/09/09 12:12:53;;;;;;;7.93;4.95;;;32.90;99.90;;;;;;5017505;28;20708;-62
2023/09/09 12:15:24;;;;;;;9.52;4.93;;;33.10;99.90;;;;;;5017174;28;20274;-63
2023/09/09 12:17:53;;;;;;;9.68;4.90;;;33.50;99.90;;;;;;5020125;28;20532;-62
2023/09/09 12:20:22;;;;;;;8.50;4.55;;;33.70;99.90;;;;;;5024264;28;20218;-62
2023/09/09 12:22:52;;;;;;;9.20;4.70;;;33.70;99.90;;;;;;5022713;28;20218;-63
2023/09/09 12:25:30;;;;;;;12.63;4.85;;;33.70;99.90;;;;;;5019401;28;20229;-62
2023/09/09 12:28:00;;;;;;;12.75;4.85;;;33.60;99.90;;;;;;5022066;28;20225;-62
2023/09/09 12:30:34;;;;;;;5.70;4.30;;;33.50;99.90;;;;;;5022817;28;20598;-62
2023/09/09 12:33:07;;;;;;;9.70;4.90;;;33.60;99.90;;;;;;5021772;28;20210;-63
2023/09/09 12:35:36;;;;;;;11.23;4.53;;;33.70;99.90;;;;;;5023834;28;20208;-62
2023/09/09 12:38:05;;;;;;;13.25;4.57;;;33.70;99.90;;;;;;5023716;28;20221;-63
2023/09/09 12:40:53;;;;;;;7.00;4.35;;;33.70;99.90;;;;;;5020617;28;20344;-62
2023/09/09 12:43:24;;;;;;;14.23;4.80;;;33.80;99.90;;;;;;5029260;28;20562;-62
2023/09/09 12:45:54;;;;;;;5.70;4.20;;;33.70;99.90;;;;;;5029116;28;20233;-62